x

9444090 - Port Angeles, Wa (ptaw1) Weather Station

4:36 - Wed 1st Oct 2014 All times are PDT. -7 hours from GMT.

  • Wind
    6mph, 9mph gusts
  • Sea Temp 52°f
  • Aire Temp 54°f
  • Sea Pressure 1022mb
  • 9444090 - Port Angeles, Wa
  • 9444090 - Port Angeles, Wa

More Historic Weather Station data

Upgrade to MSW Pro to gain access to the past 30 days of data for over 8000 Wavebouys and Weather Stations around the globe.

Join Pro

Comparision Forecast

View Surf forecast
   
mié 10/01 4:36 6 9 mph 1022mb 52f 54f
4:30 8 11 mph 1022mb 52f 55f
4:24 6 10 mph 1021.9mb 52f 56f
4:18 8 13 mph 1021.8mb 52f 56f
4:12 7 13 mph 1021.7mb 52f 56f
4:06 7 11 mph 1021.7mb 52f 56f
4:00 7 13 mph 1021.7mb 52f 56f
3:36 8 13 mph 1021.7mb 52f 56f
3:30 8 13 mph 1021.6mb 52f 56f
3:24 7 10 mph 1021.6mb 52f 57f
3:18 7 11 mph 1021.6mb 52f 57f
3:12 8 14 mph 1021.6mb 52f 57f
3:06 7 14 mph 1021.7mb 52f 57f
3:00 9 14 mph 1021.7mb 52f 57f
2:36 9 14 mph 1021.7mb 52f 57f
2:30 9 14 mph 1021.8mb 52f 57f
2:24 9 13 mph 1021.8mb 52f 57f
2:18 6 9 mph 1021.8mb 52f 56f
2:12 7 11 mph 1021.7mb 52f 56f
2:06 6 13 mph 1021.7mb 52f 56f
2:00 10 14 mph 1021.6mb 52f 56f
1:36 8 11 mph 1021.5mb 52f 56f
1:30 7 13 mph 1021.4mb 52f 56f
1:24 7 13 mph 1021.4mb 52f 56f
1:18 8 13 mph 1021.3mb 52f 56f
1:12 7 11 mph 1021.3mb 52f 56f
1:06 9 10 mph 1021.4mb 52f 56f
1:00 9 14 mph 1021.4mb 52f 56f
12:36 13 15 mph 1021.4mb 52f 56f
12:30 13 18 mph 1021.3mb 52f 57f
12:24 11 16 mph 1021.2mb 52f 58f
12:18 10 15 mph 1021.1mb 52f 57f
12:12 10 16 mph 1021mb 52f 57f
12:06 13 16 mph 1020.9mb 52f 57f
12:00 11 15 mph 1020.8mb 52f 57f
mar 09/30 11:36 8 14 mph 1020.7mb 52f 57f
11:30 9 13 mph 1020.8mb 52f 57f
11:24 8 11 mph 1020.8mb 52f 57f
11:18 6 11 mph 1020.7mb 52f 57f
11:12 7 13 mph 1020.8mb 52f 57f
11:06 8 11 mph 1020.9mb 52f 57f
11:00 6 10 mph 1020.9mb 52f 57f
10:36 7 11 mph 1021mb 52f 57f
10:30 7 11 mph 1020.9mb 52f 57f
10:24 6 10 mph 1021mb 52f 57f
10:18 6 9 mph 1021mb 52f 56f
10:12 5 9 mph 1021mb 52f 57f
10:06 6 9 mph 1021mb 52f 57f
10:00 7 10 mph 1020.9mb 52f 57f
9:36 7 10 mph 1020.9mb 52f 57f
9:30 6 10 mph 1020.9mb 52f 57f
9:24 6 9 mph 1020.8mb 52f 57f
9:18 6 8 mph 1020.8mb 52f 57f
9:12 7 9 mph 1020.8mb 52f 57f
9:06 3 9 mph 1020.7mb 52f 58f
9:00 6 8 mph 1020.7mb 52f 58f
8:36 3 7 mph 1020.7mb 52f 58f
8:30 6 9 mph 1020.7mb 52f 59f
8:24 6 9 mph 1020.7mb 52f 58f
8:18 5 7 mph 1020.7mb 52f 57f
8:12 3 5 mph 1020.7mb 52f 57f
8:06 6 13 mph 1020.6mb 52f 58f
8:00 6 9 mph 1020.5mb 52f 58f
7:36 13 20 mph 1020.2mb 52f 58f
7:30 15 18 mph 1020.2mb 52f 58f
7:24 15 20 mph 1020.1mb 52f 58f
7:18 13 18 mph 1020.1mb 52f 57f
7:12 14 17 mph 1020mb 52f 57f
7:06 14 20 mph 1020mb 52f 57f
7:00 16 20 mph 1019.9mb 52f 57f
6:36 17 23 mph 1019.7mb 52f 57f
6:30 16 22 mph 1019.6mb 52f 57f
6:24 17 21 mph 1019.6mb 52f 57f
6:18 15 20 mph 1019.6mb 52f 57f
6:12 17 23 mph 1019.5mb 52f 57f
6:06 17 22 mph 1019.6mb 52f 57f
6:00 18 24 mph 1019.5mb 52f 57f
5:36 16 24 mph 1019.4mb 52f 57f
5:30 16 21 mph 1019.4mb 52f 57f
5:24 17 21 mph 1019.3mb 52f 58f
5:18 17 21 mph 1019.1mb 52f 59f
5:12 16 21 mph 1019.1mb 52f 60f
5:06 17 23 mph 1019.2mb 52f 60f
5:00 20 23 mph 1019mb 52f 60f
4:36 21 23 mph 1018.9mb 52f 60f
3:36 16 22 mph 1018.9mb 51f 61f
3:30 17 21 mph 1018.9mb 51f 61f
3:24 17 23 mph 1018.9mb 51f 61f
3:18 17 22 mph 1018.9mb 51f 61f
3:12 18 24 mph 1018.9mb 51f 61f
3:06 18 24 mph 1018.9mb 51f 61f
3:00 21 28 mph 1018.9mb 51f 61f
2:36 21 26 mph 1018.9mb 51f 60f
2:30 21 25 mph 1018.9mb 51f 60f
2:24 20 26 mph 1018.9mb 51f 61f
2:18 21 26 mph 1019mb 51f 61f
2:12 20 24 mph 1019mb 51f 61f
2:06 16 22 mph 1019.1mb 51f 60f
2:00 18 24 mph 1019.1mb 51f 60f
1:36 18 24 mph 1019.1mb 51f 59f
1:30 17 24 mph 1019.1mb 51f 59f
1:24 20 25 mph 1019.1mb 51f 59f
1:18 18 25 mph 1019mb 51f 58f
1:12 20 25 mph 1019mb 51f 58f
1:06 20 24 mph 1019mb 51f 58f
1:00 20 24 mph 1019mb 51f 58f
12:36 20 24 mph 1018.8mb 51f 57f
12:30 18 24 mph 1018.8mb 51f 57f
12:24 21 26 mph 1018.7mb 51f 57f
12:18 20 25 mph 1018.8mb 51f 58f
12:12 18 24 mph 1018.8mb 51f 57f
12:06 21 24 mph 1018.7mb 51f 57f
12:00 22 28 mph 1018.6mb 51f 58f
11:36 18 23 mph 1018.4mb 51f 59f
11:30 18 24 mph 1018.4mb 51f 59f
11:24 17 23 mph 1018.4mb 51f 59f
11:18 17 24 mph 1018.4mb 51f 59f
11:12 22 25 mph 1018.3mb 51f 60f
11:06 20 26 mph 1018.3mb 51f 62f
11:00 15 22 mph 1018.4mb 51f 62f
10:36 9 15 mph 1018.2mb 51f 62f
10:30 14 18 mph 1018.1mb 51f 62f
10:24 10 15 mph 1018.1mb 51f 62f
10:18 11 17 mph 1018.1mb 51f 62f
10:12 13 18 mph 1018.1mb 51f 61f
10:06 13 18 mph 1018.1mb 51f 61f
10:00 9 14 mph 1018.1mb 51f 61f
9:36 10 15 mph 1018mb 51f 60f
9:30 11 14 mph 1018mb 51f 60f
9:24 9 15 mph 1018mb 51f 59f
9:18 8 14 mph 1018mb 51f 59f
9:12 9 15 mph 1018mb 51f 59f
9:06 9 16 mph 1017.9mb 51f 59f
9:00 9 16 mph 1017.8mb 51f 60f
8:36 11 17 mph 1017.5mb 51f 60f
8:30 8 18 mph 1017.5mb 51f 60f
8:24 9 14 mph 1017.4mb 51f 59f
8:18 9 16 mph 1017.4mb 51f 59f
8:12 9 16 mph 1017.4mb 51f 59f
8:06 10 18 mph 1017.4mb 51f 59f
8:00 8 15 mph 1017.4mb 51f 58f
7:36 8 14 mph 1017.3mb 52f 57f
7:30 8 13 mph 1017.3mb 52f 57f
7:24 8 14 mph 1017.2mb 52f 57f
7:18 10 14 mph 1017.2mb 52f 57f
7:12 8 14 mph 1017.1mb 52f 57f
7:06 9 14 mph 1017.1mb 52f 57f
7:00 8 14 mph 1017mb 52f 57f
6:36 7 13 mph 1016.7mb 52f 58f
6:30 6 11 mph 1016.6mb 52f 58f
6:24 7 11 mph 1016.6mb 52f 58f
6:18 7 10 mph 1016.5mb 52f 58f
6:12 7 10 mph 1016.5mb 52f 57f
6:06 7 14 mph 1016.5mb 52f 58f
6:00 8 13 mph 1016.5mb 52f 58f
5:36 7 14 mph 1016.4mb 52f 58f
5:30 6 10 mph 1016.4mb 52f 58f
5:24 7 11 mph 1016.3mb 52f 57f
5:18 7 10 mph 1016.3mb 52f 57f
5:12 8 10 mph 1016.3mb 52f 57f
5:06 8 11 mph 1016.3mb 52f 57f
5:00 9 13 mph 1016.2mb 52f 57f
4:54 9 13 mph 1016.2mb 52f 58f
4:48 8 11 mph 1016.2mb 52f 58f
4:36 8 13 mph 1016.1mb 52f 58f
4:30 10 15 mph 1016mb 52f 59f
4:24 9 11 mph 1016mb 52f 58f
4:18 8 11 mph 1016mb 52f 58f
4:12 7 10 mph 1016.1mb 52f 58f
4:06 7 14 mph 1016mb 52f 58f
4:00 8 13 mph 1015.9mb 52f 58f
3:54 7 14 mph 1015.8mb 52f 58f
3:48 7 10 mph 1015.8mb 52f 58f
3:36 9 13 mph 1015.7mb 52f 58f
3:30 9 11 mph 1015.6mb 52f 58f
3:24 8 11 mph 1015.5mb 52f 58f
3:18 9 13 mph 1015.5mb 52f 58f
3:12 6 10 mph 1015.5mb 52f 58f
3:06 8 11 mph 1015.5mb 52f 58f
3:00 7 10 mph 1015.4mb 52f 59f
2:54 8 14 mph 1015.5mb 52f 59f
2:48 5 10 mph 1015.4mb 52f 58f
2:36 6 10 mph 1015.4mb 52f 58f
2:30 6 10 mph 1015.4mb 52f 58f
2:24 8 15 mph 1015.3mb 52f 59f
2:18 9 14 mph 1015.2mb 52f 58f
2:12 10 11 mph 1015.2mb 52f 58f
2:06 9 13 mph 1015.2mb 52f 58f
2:00 10 14 mph 1015.2mb 52f 58f
1:54 10 14 mph 1015.1mb 52f 58f
1:48 9 11 mph 1015mb 52f 58f
1:36 9 10 mph 1014.9mb 52f 59f
1:30 8 11 mph 1014.9mb 52f 59f
1:24 8 10 mph 1014.8mb 52f 59f
1:18 9 13 mph 1014.7mb 52f 59f
1:12 7 13 mph 1014.8mb 52f 59f
1:06 7 9 mph 1014.8mb 52f 59f
1:00 7 9 mph 1014.8mb 52f 59f
12:54 7 9 mph 1014.8mb 52f 59f
12:48 8 10 mph 1014.7mb 52f 59f
12:36 9 14 mph 1014.7mb 52f 60f
12:30 8 10 mph 1014.7mb 52f 59f
12:24 6 9 mph 1014.7mb 52f 58f
12:18 7 10 mph 1014.5mb 52f 58f
12:12 7 9 mph 1014.5mb 52f 59f
12:06 6 8 mph 1014.5mb 52f 59f
12:00 6 9 mph 1014.5mb 52f 59f
lun 09/29 11:54 8 11 mph 1014.5mb 52f 60f
11:48 8 13 mph 1014.4mb 52f 59f
11:36 10 15 mph 1014.3mb 52f 60f
11:30 11 16 mph 1014.2mb 52f 60f
11:24 13 18 mph 1014.2mb 52f 60f
11:18 11 15 mph 1014.2mb 52f 60f
11:12 10 15 mph 1014.2mb 52f 60f
11:06 13 18 mph 1014.1mb 52f 60f
11:00 15 18 mph 1013.9mb 52f 60f
10:54 13 18 mph 1013.8mb 52f 60f
10:48 14 17 mph 1013.9mb 52f 60f
10:36 14 21 mph 1013.8mb 52f 60f
10:30 13 20 mph 1013.7mb 52f 60f
10:24 11 20 mph 1013.6mb 52f 60f
10:18 13 18 mph 1013.7mb 52f 60f
10:12 14 21 mph 1013.8mb 52f 60f
10:06 13 18 mph 1013.8mb 52f 60f
10:00 10 15 mph 1013.8mb 52f 60f
9:54 10 16 mph 1013.9mb 52f 60f
9:48 11 16 mph 1013.8mb 52f 60f
9:36 15 18 mph 1013.8mb 52f 61f
9:30 14 21 mph 1013.8mb 52f 61f
9:24 14 17 mph 1013.7mb 52f 61f
9:18 15 21 mph 1013.7mb 52f 61f
9:12 14 21 mph 1013.6mb 52f 61f
9:06 13 20 mph 1013.6mb 52f 61f
9:00 14 22 mph 1013.5mb 52f 61f
8:54 11 15 mph 1013.4mb 52f 61f
8:48 10 14 mph 1013.3mb 52f 61f
8:36 13 16 mph 1013.2mb 52f 61f
8:30 13 16 mph 1013.1mb 52f 61f
8:24 13 17 mph 1013mb 52f 61f
8:18 11 18 mph 1013mb 52f 61f
8:12 11 17 mph 1013mb 52f 61f
8:06 14 18 mph 1013mb 52f 61f
8:00 15 17 mph 1012.9mb 52f 61f
7:54 14 17 mph 1012.8mb 52f 62f
7:48 11 15 mph 1012.8mb 52f 61f
7:36 11 18 mph 1012.7mb 52f 61f
7:30 14 17 mph 1012.6mb 52f 61f
7:24 14 18 mph 1012.5mb 52f 61f
7:18 13 15 mph 1012.5mb 52f 62f
7:12 11 16 mph 1012.5mb 52f 62f
7:06 13 17 mph 1012.4mb 52f 62f
7:00 11 20 mph 1012.4mb 52f 62f
6:54 11 16 mph 1012.2mb 52f 62f
6:48 13 20 mph 1012.2mb 52f 62f
6:36 13 22 mph 1012.2mb 52f 62f
6:30 14 22 mph 1012.1mb 52f 62f
6:24 16 21 mph 1012mb 52f 62f
6:18 15 20 mph 1011.9mb 52f 62f
6:12 15 22 mph 1011.8mb 52f 62f
6:06 16 22 mph 1011.8mb 52f 62f
6:00 14 21 mph 1011.8mb 52f 62f
5:54 13 20 mph 1011.8mb 52f 62f
5:48 14 17 mph 1011.7mb 52f 62f
5:36 17 23 mph 1011.5mb 52f 62f
5:30 17 23 mph 1011.4mb 52f 61f
5:24 20 26 mph 1011.3mb 52f 61f
5:18 21 25 mph 1011.3mb 52f 61f
5:12 18 25 mph 1011.4mb 52f 60f
5:06 14 24 mph 1011.4mb 51f 60f
5:00 15 25 mph 1011.4mb 51f 62f
4:54 13 22 mph 1011.3mb 51f 61f
4:48 15 26 mph 1011.3mb 51f 61f
4:36 13 17 mph 1011.4mb 52f 61f
4:30 16 20 mph 1011.4mb 52f 61f
4:24 17 22 mph 1011.4mb 52f 61f
4:18 14 24 mph 1011.5mb 52f 61f
4:12 13 18 mph 1011.5mb 52f 61f
4:06 11 18 mph 1011.6mb 52f 60f
4:00 14 21 mph 1011.6mb 52f 60f
3:54 16 21 mph 1011.6mb 51f 60f
3:48 17 24 mph 1011.6mb 51f 60f
3:36 13 18 mph 1011.7mb 51f 60f
3:30 10 17 mph 1011.8mb 51f 59f
3:24 9 14 mph 1011.8mb 51f 59f
3:18 8 14 mph 1011.8mb 51f 59f
3:12 13 18 mph 1011.9mb 51f 58f
3:06 6 8 mph 1011.9mb 51f 56f
3:00 6 8 mph 1011.9mb 51f 56f
2:54 8 14 mph 1011.8mb 51f 55f
2:48 8 13 mph 1011.8mb 51f 55f
2:36 8 9 mph 1011.6mb 51f 56f
2:30 8 11 mph 1011.6mb 51f 56f
2:24 6 7 mph 1011.5mb 52f 55f
2:18 7 8 mph 1011.5mb 52f 56f
2:12 7 9 mph 1011.6mb 52f 56f
2:06 9 13 mph 1011.5mb 52f 55f
2:00 11 13 mph 1011.5mb 52f 56f
1:54 11 13 mph 1011.4mb 52f 56f
1:48 11 14 mph 1011.4mb 51f 56f
1:36 9 10 mph 1011.5mb 51f 56f
1:30 11 14 mph 1011.6mb 51f 55f
1:24 10 13 mph 1011.6mb 51f 55f
1:18 10 13 mph 1011.6mb 51f 55f
1:12 6 7 mph 1011.6mb 51f 55f
1:06 5 6 mph 1011.5mb 51f 56f
1:00 2 3 mph 1011.4mb 51f 56f
12:54 2 5 mph 1011.6mb 51f 56f
12:48 2 6 mph - - -
12:36 1 2 mph 1011.3mb 51f 57f
12:30 1 2 mph 1011.2mb 51f 58f
12:24 2 3 mph 1011.2mb 51f 58f
12:18 2
mph
1011.2mb 51f 59f
12:12 2
mph
1011.1mb 51f 57f
12:06 2 3 mph 1011.2mb 51f 57f
12:00 2
mph
1011.2mb 51f 57f
11:54 2
mph
1011.1mb 51f 57f
11:48 2
mph
1011.1mb 51f 58f
11:36 2 3 mph 1011.2mb 51f 57f
11:30 3 6 mph 1011.1mb 51f 56f
11:24 5 6 mph 1011.1mb 51f 56f
11:18 5 7 mph 1011.1mb 51f 55f
11:12 6 7 mph 1011.2mb 51f 56f
11:06 5 6 mph 1011.2mb 51f 55f
11:00 6 7 mph 1011.3mb 51f 55f
10:54 5 7 mph 1011.3mb 51f 55f
10:48 5 8 mph 1011.3mb 51f 55f
10:36 5 9 mph 1011.3mb 52f 56f
10:30 5 8 mph 1011.2mb 52f 56f
10:24 5 7 mph 1011.2mb 52f 56f
10:18 3 6 mph 1011.3mb 52f 58f
10:12 3
mph
1011.2mb 52f 57f
10:06 3 5 mph 1011.3mb 51f 56f
10:00 5 6 mph 1011.4mb 51f 56f
9:54 5 6 mph 1011.5mb 51f 55f
9:48 3 7 mph 1011.6mb 52f 55f
9:36 5
mph
1011.6mb 52f 54f
9:30 2 3 mph 1011.7mb 52f 55f
9:24 3
mph
1011.7mb 52f 55f
9:18 2 3 mph 1011.7mb 52f 55f
9:12 3 5 mph 1011.7mb 52f 55f
9:06 1
mph
1011.8mb 52f 55f
9:00 1 3 mph 1011.8mb 52f 55f
8:54  -  2 mph 1011.8mb 52f 55f
8:48 2 5 mph 1011.9mb 52f 55f
8:36 7 8 mph 1011.8mb 52f 55f
8:30 3 6 mph 1011.7mb 51f 56f
8:24  -  5 mph 1011.6mb 52f 56f
8:18 3 5 mph 1011.7mb 52f 56f
8:12 3 5 mph 1011.9mb 52f 57f
8:06 1 6 mph 1011.7mb 52f 57f
8:00 6 8 mph 1011.6mb 52f 57f
7:54 5 7 mph 1011.6mb 52f 57f
7:48 6 7 mph 1011.6mb 52f 56f
7:36 6 7 mph 1011.7mb 52f 55f
7:30 3 6 mph 1011.8mb 52f 54f
7:24 1 2 mph 1011.8mb 52f 53f
7:18 1 2 mph 1011.6mb 52f 53f
7:12 2 3 mph 1011.6mb 52f 52f
7:06 2
mph
1011.5mb 52f 52f
7:00 2 3 mph 1011.4mb 52f 52f
6:54 3 5 mph 1011.5mb 52f 52f
6:48 3 5 mph 1011.6mb 52f 53f
6:36 1 2 mph 1011.6mb 52f 53f
6:30 1 2 mph 1011.5mb 52f 53f
6:24  -  5 mph 1011.5mb 52f 53f
6:18 5
mph
1011.4mb 52f 53f
6:12 2 5 mph 1011.6mb 52f 53f
6:06 2 3 mph 1011.7mb 52f 53f
6:00 3
mph
1011.7mb 52f 52f
5:54 2 3 mph 1011.8mb 52f 53f
5:48 3
mph
1011.8mb 52f 53f
5:36 2 5 mph 1011.8mb 52f 53f
5:30 6 7 mph 1011.9mb 52f 53f
5:24 3
mph
1011.9mb 52f 53f
5:18 3
mph
1011.9mb 52f 53f
5:12 3 7 mph 1011.9mb 52f 54f
5:06 6 7 mph 1012mb 52f 54f
5:00 6 7 mph 1012.1mb 52f 55f
4:54 5 8 mph 1012mb 52f 55f
4:48 6 9 mph 1012.1mb 52f 54f
4:36 6 8 mph 1012.1mb 52f 54f
4:30 7 9 mph 1012mb 52f 54f
4:24 6 10 mph 1012mb 52f 56f
4:18 6 9 mph 1012mb 52f 54f
4:12 7 9 mph 1012mb 52f 52f
4:06 7 10 mph 1011.9mb 52f 52f
4:00 6 7 mph 1011.9mb 52f 52f
3:54 3 6 mph 1011.8mb 52f 52f
3:48 3 5 mph 1011.8mb 52f 52f
3:36 5 6 mph 1011.8mb 52f 52f
3:30 2 3 mph 1011.8mb 52f 53f
3:24 3 5 mph 1011.9mb 52f 53f
3:18 3 5 mph 1011.9mb 52f 52f
3:12 3 5 mph 1011.9mb 52f 52f
3:06 3 5 mph 1012mb 52f 53f
3:00 2 6 mph 1012mb 52f 53f
2:54 3 5 mph 1011.9mb 52f 53f
2:48 3 5 mph 1012mb 52f 53f
2:36 3 5 mph 1012.1mb 52f 54f
2:30 3 5 mph 1012.1mb 52f 54f
2:24 3 6 mph 1012.1mb 52f 55f
2:18 5 7 mph 1012.2mb 52f 55f
2:12 3 8 mph 1012.2mb 52f 56f
2:06 5 7 mph 1012.2mb 52f 56f
2:00 5 7 mph 1012.2mb 52f 57f
1:54 5 7 mph 1012.3mb 52f 57f
1:48 6 9 mph 1012.3mb 52f 57f
1:36 6 9 mph 1012.4mb 52f 57f
1:30 6 8 mph 1012.4mb 52f 57f
1:24 3 6 mph 1012.4mb 52f 56f
1:18 7 10 mph 1012.4mb 52f 56f
1:12 6 8 mph 1012.3mb 52f 56f
1:06 6
mph
1012.2mb 52f 55f
1:00 5 7 mph 1012.2mb 52f 55f
12:54 2 5 mph 1012.2mb 52f 55f
12:48 3 7 mph 1012.3mb 52f 56f
12:36 3 6 mph 1012.4mb 52f 57f
12:30 3 8 mph 1012.4mb 52f 57f
12:24 6 9 mph 1012.4mb 52f 58f
12:18 7 10 mph 1012.4mb 52f 58f
12:12 5 7 mph 1012.5mb 52f 58f
12:06 3 5 mph 1012.4mb 52f 55f
12:00 3 5 mph 1012.4mb 52f 55f
dom 09/28 11:54 3 5 mph 1012.3mb 52f 56f
11:48  -  1 mph 1012.2mb 52f 56f
11:36 6 7 mph 1012.2mb 52f 57f
11:30 5 6 mph 1012.3mb 52f 58f
11:24 3 11 mph 1012.3mb 52f 58f
11:18 6 10 mph 1012.4mb 52f 57f
11:12 5 6 mph 1012.5mb 52f 56f
11:06 5 7 mph 1012.5mb 52f 56f
11:00 3 5 mph 1012.6mb 52f 56f
10:54 5 6 mph 1012.6mb 52f 56f
10:48 3 6 mph 1012.6mb 52f 56f
10:36 2 5 mph 1012.6mb 52f 56f
10:30 1 2 mph - - -
10:24 2
mph
- - -
10:18 2 3 mph - - -
10:12 2 3 mph - - -
10:06 1 2 mph 1012.6mb 52f 56f
10:00 1 2 mph 1012.7mb 52f 56f
9:54 2 5 mph 1012.7mb 52f 55f
9:48 3 5 mph 1012.7mb 52f 55f
9:36 2 3 mph 1012.9mb 52f 56f
9:30 2 3 mph 1012.9mb 52f 56f
9:24 2 3 mph 1013mb 52f 56f
9:18 2 3 mph 1013mb 52f 56f
9:12 1 2 mph 1013mb 52f 57f
9:06 2 5 mph 1012.9mb 52f 57f
9:00 1 3 mph 1012.9mb 52f 57f
8:54 2
mph
1013mb 52f 57f
8:48 3
mph
1013mb 52f 58f
8:36 2 3 mph 1013mb 52f 58f
8:30 2 7 mph 1013.1mb 52f 58f
8:24 2 7 mph 1013.2mb 52f 58f
8:18 2 6 mph 1013.2mb 52f 58f
8:12 6 9 mph 1013.3mb 52f 58f
8:06 9 15 mph 1013.3mb 52f 57f
8:00 11 15 mph 1013.3mb 52f 57f
7:54 11 15 mph 1013.2mb 52f 56f
7:48 7 10 mph 1013.2mb 52f 56f
7:36 3
mph
1013.1mb 52f 57f
7:30 1 3 mph 1013.2mb 52f 56f
7:24 2 3 mph 1013.3mb 52f 57f
7:18 5 7 mph 1013.4mb 52f 56f
7:12 6 10 mph 1013.4mb 52f 56f
7:06 7 10 mph 1013.4mb 52f 59f
7:00 1 2 mph 1013.3mb 52f 59f
6:54 1 2 mph 1013.3mb 52f 59f
6:48 1 2 mph 1013.3mb 52f 59f
6:36 2 3 mph 1013.4mb 52f 59f
6:30 3 5 mph 1013.4mb 52f 60f
6:24 3
mph
1013.5mb 52f 62f
6:18 2
mph
1013.7mb 52f 62f
6:12  -  1 mph 1013.8mb 52f 62f
6:06  -  5 mph 1013.9mb 52f 60f
6:00 5 6 mph 1013.9mb 52f 59f
5:54 6 8 mph 1014mb 52f 60f
5:48 8 10 mph 1014.1mb 52f 60f
5:36 10 14 mph 1014.1mb 52f 57f
5:30 13 14 mph 1014.1mb 52f 58f
5:24 10 13 mph 1014mb 52f 58f
5:18 11 13 mph 1014mb 52f 57f
5:12 8 11 mph 1014mb 52f 58f
5:06 6 8 mph 1013.9mb 52f 60f
5:00 6 10 mph 1014mb 52f 60f
4:54 8 10 mph 1014mb 52f 60f
4:48 8 10 mph 1014.1mb 52f 60f
4:36 1 3 mph 1014mb 52f 63f
4:30 3
mph
1014mb 52f 61f
4:24 2 3 mph 1014mb 52f 62f
4:18 3 5 mph 1014.1mb 52f 60f
4:12 3 5 mph 1014.2mb 52f 60f
4:06 6 7 mph 1014.3mb 52f 61f
4:00 6 7 mph 1014.3mb 52f 60f
3:54 6
mph
1014.3mb 52f 60f
3:48 6
mph
1014.4mb 52f 59f
3:36 5 6 mph 1014.5mb 52f 60f
3:30 6
mph
1014.6mb 52f 61f
3:24 5 6 mph 1014.6mb 52f 62f
3:18 5
mph
1014.7mb 52f 60f
3:12 5
mph
1014.8mb 52f 61f
3:06 5
mph
1014.8mb 52f 61f
3:00 5
mph
1014.9mb 52f 62f
2:54 5
mph
1015mb 52f 62f
2:48 5
mph
1015mb 52f 63f
2:36 1 2 mph 1015.1mb 51f 63f
2:30 2
mph
1015.1mb 51f 62f
2:24 1 2 mph 1015.1mb 51f 61f
2:18  -  1 mph 1015.1mb 51f 60f
2:12 1 3 mph 1015.2mb 51f 60f
2:06 2
mph
1015.2mb 51f 59f
2:00 2 3 mph 1015.3mb 51f 60f
1:54 2 5 mph 1015.3mb 51f 60f
1:48 3 5 mph 1015.4mb 51f 59f
1:36 5
mph
1015.5mb 51f 60f
1:30 5
mph
1015.6mb 51f 61f
1:24 3 5 mph 1015.7mb 51f 61f
1:18 3 5 mph 1015.8mb 51f 59f
1:12 3 5 mph 1015.9mb 51f 58f
1:06 3 5 mph 1016mb 51f 59f
1:00 3 5 mph 1016.2mb 51f 59f
12:54 3 5 mph 1016.3mb 51f 58f
12:48 3 5 mph 1016.3mb 51f 58f
12:36 6 7 mph 1016.4mb 51f 58f
12:30 6
mph
1016.4mb 51f 60f
12:24 6
mph
1016.5mb 51f 60f
12:18 6
mph
1016.5mb 51f 59f
12:12 6
mph
1016.5mb 51f 60f
12:06 5 6 mph 1016.5mb 51f 61f
12:00 5 6 mph 1016.6mb 51f 61f
11:54 3 5 mph 1016.6mb 51f 59f
11:48 3 5 mph 1016.7mb 51f 60f
11:36 3 5 mph 1016.9mb 52f 60f
11:30 3 5 mph 1016.9mb 52f 59f
11:24 3
mph
1016.9mb 52f 60f
11:18 3 5 mph 1016.9mb 52f 58f
11:12 3 5 mph 1017mb 52f 58f
11:06 3 6 mph 1017mb 52f 58f
11:00 3 6 mph 1017.1mb 52f 58f
10:54 5
mph
1017.1mb 52f 58f
10:48 5 6 mph 1017.1mb 52f 59f
10:36 5
mph
1017.1mb 52f 62f
10:30 3 5 mph 1017.1mb 52f 62f
10:24 3
mph
1017.1mb 52f 60f
10:18 2 3 mph 1017.1mb 52f 61f
10:12 3 5 mph 1017.1mb 52f 61f
10:06 3 5 mph 1017.2mb 52f 63f
10:00 2 3 mph 1017.3mb 52f 62f
9:54 2 3 mph 1017.3mb 51f 62f
9:48 2 3 mph 1017.4mb 51f 62f
9:36 2 3 mph 1017.5mb 51f 60f
9:30 3 6 mph 1017.6mb 51f 61f
9:24 1 2 mph 1017.7mb 51f 62f
9:18  -  1 mph 1017.7mb 51f 64f
9:12 1 2 mph 1017.7mb 51f 62f
9:06 1 2 mph 1017.8mb 51f 62f
9:00 1 3 mph 1017.8mb 51f 61f
8:54 1 2 mph 1017.8mb 51f 59f
8:48 1 2 mph 1017.7mb 51f 58f
8:36 1 2 mph 1017.7mb 51f 55f
8:30 2
mph
1017.8mb 51f 54f
8:24 2
mph
1017.8mb 51f 54f
8:18 2 3 mph 1017.8mb 51f 54f
8:12 2 3 mph 1017.9mb 51f 55f
8:06 1 2 mph 1017.9mb 51f 53f
8:00 2 5 mph 1018mb 51f 52f
7:54 3 6 mph 1018mb 51f 53f
7:48 2 3 mph 1018mb 51f 52f
7:36 3 5 mph 1018.1mb 51f 52f
7:30 3 6 mph 1018.1mb 51f 51f
7:24 6 7 mph 1018.1mb 51f 51f
7:18 3 6 mph 1018.1mb 51f 51f
7:12 7 9 mph 1018.1mb 51f 51f
7:06 5 7 mph 1018.2mb 51f 51f
7:00 5 7 mph 1018.1mb 51f 51f
6:54 2 7 mph 1018.2mb 51f 51f
6:48 1 5 mph 1018.2mb 51f 51f
6:36 7 8 mph 1018.1mb 51f 50f
6:30 6 8 mph 1018.1mb 51f 49f
6:24 5 6 mph 1018.2mb 51f 49f
6:18 3 6 mph 1018.1mb 51f 50f
6:12 5 6 mph 1018.2mb 51f 49f
6:06 6
mph
1018.2mb 51f 49f
6:00 5 6 mph 1018.2mb 51f 48f
5:54 5 6 mph 1018.3mb 51f 48f
5:48 3 5 mph 1018.4mb 51f 48f
5:36 3 7 mph 1018.4mb 51f 49f
5:30 5 6 mph 1018.3mb 51f 48f
5:24 5 7 mph 1018.3mb 51f 49f
5:18 6 7 mph 1018.3mb 51f 49f
5:12 6
mph
1018.3mb 51f 48f
5:06 5 6 mph 1018.4mb 51f 48f
5:00 2 5 mph 1018.4mb 51f 48f
4:54 5 6 mph 1018.4mb 51f 49f
4:48 3 5 mph 1018.4mb 51f 48f
4:36 2 5 mph 1018.5mb 51f 48f
4:30 3 5 mph 1018.4mb 51f 49f
4:24 3
mph
1018.4mb 51f 48f
4:18 3 5 mph 1018.5mb 52f 49f
4:12 5 6 mph 1018.5mb 52f 48f
4:06 3 5 mph 1018.6mb 52f 48f
4:00 5 6 mph 1018.7mb 52f 49f
3:54 3 5 mph 1018.7mb 52f 49f
3:48 5 6 mph 1018.8mb 52f 49f
3:36 2 3 mph 1018.7mb 52f 49f
3:30 3 5 mph 1018.7mb 52f 49f
3:24 2 3 mph 1018.8mb 52f 49f
3:18 1 2 mph 1018.8mb 52f 49f
3:12 1
mph
1018.9mb 52f 49f
3:06  -  2 mph 1018.9mb 52f 49f
3:00 2 3 mph 1019mb 52f 49f
2:54  -  2 mph 1019mb 52f 50f
2:48 2 3 mph 1018.9mb 52f 49f
2:36 3 5 mph 1018.9mb 52f 50f
2:30 2
mph
1018.9mb 52f 50f
2:24 2 3 mph 1019mb 52f 51f
2:18 1 3 mph 1019.1mb 52f 52f
2:12 2 3 mph 1019.1mb 52f 51f
2:06 1 6 mph 1019.1mb 52f 50f
2:00 7 8 mph 1019mb 52f 51f
1:54 5 7 mph 1019.1mb 52f 51f
1:48 5 6 mph 1019.1mb 52f 51f
1:36 3 6 mph 1019.2mb 52f 50f
1:30 5 6 mph 1019.2mb 52f 50f
1:24 3 5 mph 1019.3mb 52f 50f
1:18 3
mph
1019.3mb 52f 50f
1:12 3 5 mph 1019.3mb 52f 51f
1:06 2 5 mph 1019.4mb 52f 51f
1:00 5 6 mph 1019.3mb 52f 51f
12:54 5 7 mph 1019.3mb 52f 51f
12:48 6 8 mph 1019.4mb 52f 51f
12:36 5 7 mph 1019.6mb 52f 51f
12:30 3 5 mph 1019.6mb 52f 51f
12:24 3 5 mph 1019.6mb 52f 51f
12:18 3 5 mph 1019.7mb 52f 51f
12:12 3 5 mph 1019.6mb 52f 51f
12:06 2 3 mph 1019.7mb 52f 51f
12:00 2 3 mph 1019.6mb 51f 51f
sáb 09/27 11:54 3 5 mph 1019.7mb 51f 51f
11:48 3 6 mph 1019.6mb 51f 52f
11:36 7
mph
1019.6mb 51f 52f
11:30 3 7 mph 1019.7mb 51f 52f
11:24 5 6 mph 1019.8mb 51f 52f
11:18 3 5 mph 1019.8mb 51f 53f
11:12 3 6 mph 1019.7mb 51f 53f
11:06 5 6 mph 1019.7mb 51f 53f
11:00 6 8 mph 1019.8mb 51f 53f
10:54 7 8 mph 1019.9mb 51f 53f
10:48 6 7 mph 1019.9mb 51f 54f
10:36 7 9 mph 1019.9mb 51f 54f
10:30 6 7 mph 1019.9mb 51f 54f
10:24 6 7 mph 1020mb 51f 54f
10:18 6 8 mph 1020mb 51f 55f
10:12 6 7 mph 1020mb 51f 55f
10:06 6
mph
1020mb 51f 55f
10:00 6 7 mph 1020mb 51f 55f
9:54 5 7 mph 1020mb 51f 55f
9:48 5 7 mph 1020.1mb 51f 55f
9:36 6 8 mph 1020.1mb 51f 55f
9:30 7 9 mph 1020.1mb 51f 55f
9:24 3 6 mph 1020.1mb 51f 55f
9:18 5
mph
1020mb 51f 55f
9:12 5 6 mph 1020mb 51f 56f
9:06 3
mph
1020mb 51f 55f
9:00 3
mph
1019.9mb 51f 55f
8:54 2 3 mph 1019.9mb 51f 55f
8:48 1 5 mph 1019.9mb 51f 56f
8:36 5 6 mph 1020mb 51f 56f
8:30 5
mph
1020.1mb 51f 56f
8:24 2
mph
1020.1mb 51f 57f
8:18 2 3 mph 1020.1mb 51f 58f
8:12 2 6 mph 1020.1mb 51f 58f
8:06 3 6 mph 1020.2mb 51f 58f
8:00 3 5 mph 1020.2mb 51f 56f
7:54 2 3 mph 1020.3mb 51f 56f
7:48 1 2 mph 1020.3mb 51f 56f
7:36  -  2 mph 1020.1mb 52f 58f
7:30 2 3 mph 1020.1mb 52f 58f
7:24 2 5 mph 1020mb 52f 58f
7:18 1 3 mph 1019.9mb 52f 58f
7:12 1 3 mph 1019.9mb 52f 58f
7:06 1 2 mph 1019.9mb 52f 58f
7:00  -  2 mph 1019.9mb 52f 57f
6:54 1 3 mph 1020mb 52f 57f
6:48 2
mph
1020mb 52f 57f
6:36 2 3 mph 1019.9mb 52f 57f
6:30 3 7 mph 1019.9mb 52f 57f
6:24 6 8 mph 1019.9mb 51f 56f
6:18 6 7 mph 1019.9mb 51f 55f
6:12 3 6 mph 1019.8mb 51f 55f
6:06 6 8 mph 1019.9mb 51f 55f
6:00 2 7 mph 1019.9mb 51f 56f
5:54 3 5 mph 1019.9mb 51f 56f
5:48 3 5 mph 1020mb 51f 56f
5:36 5 7 mph 1020mb 51f 56f
5:30 7 9 mph 1020mb 51f 55f
5:24 5 7 mph 1020.1mb 51f 55f
5:18 7 8 mph 1020.1mb 51f 55f
5:12 5 7 mph 1020.1mb 51f 55f
5:06 3 5 mph 1020mb 51f 56f
5:00 1 2 mph - - -
4:54 2
mph
1020mb 51f 58f
4:48 2 3 mph 1020.1mb 51f 56f
4:36 2
mph
1020.2mb 51f 59f
4:30 2
mph
1020.2mb 51f 62f
4:24 1 2 mph 1020.3mb 51f 62f
4:18 2
mph
1020.3mb 51f 62f
4:12 2
mph
1020.2mb 51f 62f
4:06 1 2 mph 1020.2mb 51f 61f
4:00 2 3 mph 1020.2mb 51f 60f
3:54 2 3 mph 1020.2mb 51f 61f
3:48 2 3 mph 1020.2mb 51f 60f
3:36 3
mph
1020.2mb 51f 56f
3:30 3 5 mph 1020.3mb 51f 56f
3:24 3 5 mph 1020.3mb 51f 56f
3:18 5 6 mph 1020.4mb 51f 56f
3:12 5
mph
1020.4mb 51f 55f
3:06 3 5 mph 1020.5mb 51f 56f
3:00 3 5 mph 1020.6mb 51f 56f
2:54 5 6 mph 1020.6mb 51f 56f
2:48 5 6 mph 1020.6mb 51f 57f
2:36 3 6 mph 1020.6mb 51f 58f
2:30 3 5 mph 1020.6mb 51f 59f
2:24 3 5 mph 1020.5mb 51f 60f
2:18 5
mph
1020.6mb 51f 61f
2:12 3 5 mph 1020.7mb 51f 62f
2:06 2 3 mph 1020.7mb 51f 63f
2:00 2 3 mph 1020.8mb 51f 63f
1:54 2
mph
1020.8mb 51f 63f
1:48 3
mph
1020.9mb 51f 62f
1:36 1 2 mph 1021mb 51f 58f
1:30 1 2 mph 1021mb 51f 59f
1:24 2
mph
1021mb 51f 59f
1:18 2
mph
1021.1mb 51f 59f
1:12 1 2 mph 1021mb 51f 58f
1:06 1 2 mph 1021.1mb 51f 58f
1:00 1 2 mph 1021.1mb 51f 60f
12:54 2
mph
1021.1mb 51f 59f
12:48 1 2 mph 1021.1mb 51f 59f